createdAt,value
2023-03-02T00:00:16.479Z,4.93
2023-03-02T00:03:11.339Z,5.50
2023-03-02T00:06:05.639Z,4.60
2023-03-02T00:09:00.540Z,5.65
2023-03-02T00:11:53.562Z,3.83
2023-03-02T00:14:48.289Z,4.55
2023-03-02T00:17:41.715Z,4.15
2023-03-02T00:20:35.971Z,3.88
2023-03-02T00:23:29.578Z,5.35
2023-03-02T00:26:22.356Z,4.38
2023-03-02T00:29:15.535Z,4.20
2023-03-02T00:32:11.893Z,3.70
2023-03-02T00:35:04.933Z,3.78
2023-03-02T00:37:57.822Z,4.40
2023-03-02T00:40:50.978Z,3.67
2023-03-02T00:43:45.049Z,4.35
2023-03-02T00:46:38.532Z,4.40
2023-03-02T00:49:33.058Z,4.22
2023-03-02T00:52:26.501Z,4.30
2023-03-02T00:55:20.368Z,4.72
2023-03-02T00:58:13.787Z,4.55
2023-03-02T01:01:08.928Z,3.40
2023-03-02T01:04:01.658Z,5.80
2023-03-02T01:06:56.322Z,4.65
2023-03-02T01:09:49.730Z,4.82
2023-03-02T01:12:42.919Z,4.18
2023-03-02T01:15:35.924Z,4.65
2023-03-02T01:18:28.848Z,3.65
2023-03-02T01:21:21.832Z,4.40
2023-03-02T01:24:16.288Z,3.83
2023-03-02T01:27:09.873Z,4.30
2023-03-02T01:30:03.112Z,3.92
2023-03-02T01:32:56.520Z,4.47
2023-03-02T01:35:50.254Z,5.07
2023-03-02T01:38:46.413Z,3.25
2023-03-02T01:41:41.368Z,4.13
2023-03-02T01:44:37.463Z,4.93
2023-03-02T01:47:35.090Z,4.45
2023-03-02T01:50:28.772Z,4.45
2023-03-02T01:53:23.137Z,4.35
2023-03-02T01:56:19.981Z,3.58
2023-03-02T01:59:17.926Z,5.38
2023-03-02T02:02:13.465Z,5.60
2023-03-02T02:05:08.185Z,5.57
2023-03-02T02:08:02.139Z,4.47
2023-03-02T02:10:56.762Z,4.35
2023-03-02T02:13:50.114Z,4.60
2023-03-02T02:16:45.361Z,4.15
2023-03-02T02:19:47.685Z,4.78
2023-03-02T02:22:50.875Z,4.47
2023-03-02T02:25:55.311Z,5.40
2023-03-02T02:28:57.588Z,4.28
2023-03-02T02:31:55.989Z,4.93
2023-03-02T02:34:52.570Z,6.90
2023-03-02T02:37:48.489Z,4.40
2023-03-02T02:40:47.264Z,4.30
2023-03-02T02:43:42.072Z,4.13
2023-03-02T02:46:36.163Z,4.32
2023-03-02T02:49:36.573Z,4.90
2023-03-02T02:52:30.775Z,5.13
2023-03-02T02:55:25.859Z,5.15
2023-03-02T02:58:28.898Z,4.13
2023-03-02T03:01:25.952Z,4.60
2023-03-02T03:04:23.358Z,4.95
2023-03-02T03:07:23.473Z,4.28
2023-03-02T03:10:23.857Z,5.68
2023-03-02T03:13:16.740Z,3.83
2023-03-02T03:16:14.911Z,4.97
2023-03-02T03:19:16.205Z,3.92
2023-03-02T03:22:11.874Z,4.30
2023-03-02T03:25:05.210Z,5.13
2023-03-02T03:27:58.921Z,3.85
2023-03-02T03:30:52.023Z,4.78
2023-03-02T03:33:45.007Z,5.13
2023-03-02T03:36:39.274Z,3.92
2023-03-02T03:39:33.659Z,3.50
2023-03-02T03:42:26.412Z,3.15
2023-03-02T03:45:19.980Z,4.50
2023-03-02T03:48:12.812Z,5.43
2023-03-02T03:51:07.146Z,4.18
2023-03-02T03:54:02.238Z,3.78
2023-03-02T03:56:56.349Z,4.85
2023-03-02T03:59:50.053Z,4.05
2023-03-02T04:02:43.311Z,4.78
2023-03-02T04:05:36.590Z,4.45
2023-03-02T04:08:29.461Z,3.92
2023-03-02T04:11:24.647Z,5.93
2023-03-02T04:14:19.362Z,5.15
2023-03-02T04:17:12.828Z,4.28
2023-03-02T04:20:07.668Z,4.65
2023-03-02T04:23:01.080Z,5.15
2023-03-02T04:25:53.774Z,4.13
2023-03-02T04:28:51.018Z,4.25
2023-03-02T04:31:44.183Z,3.35
2023-03-02T04:34:37.967Z,4.88
2023-03-02T04:37:30.806Z,5.20
2023-03-02T04:40:24.335Z,4.15
2023-03-02T04:43:17.715Z,4.85
2023-03-02T04:46:22.838Z,3.70
2023-03-02T04:49:20.740Z,4.00
2023-03-02T04:52:13.628Z,4.40
2023-03-02T04:55:08.535Z,4.95
2023-03-02T04:58:01.764Z,4.57
2023-03-02T05:01:03.530Z,4.93
2023-03-02T05:03:58.473Z,4.63
2023-03-02T05:06:52.149Z,3.50
2023-03-02T05:09:44.796Z,3.88
2023-03-02T05:12:54.459Z,4.75
2023-03-02T05:15:47.802Z,3.60
2023-03-02T05:18:41.214Z,5.13
2023-03-02T05:21:36.492Z,5.53
2023-03-02T05:24:29.940Z,3.65
2023-03-02T05:27:22.884Z,4.85
2023-03-02T05:30:15.808Z,3.72
2023-03-02T05:33:09.140Z,4.32
2023-03-02T05:36:01.991Z,4.95
2023-03-02T05:38:56.204Z,4.78
2023-03-02T05:41:49.905Z,5.03
2023-03-02T05:44:42.912Z,4.65
2023-03-02T05:47:35.953Z,5.35
2023-03-02T05:50:29.166Z,4.47
2023-03-02T05:53:22.127Z,5.05
2023-03-02T05:56:16.262Z,4.78
2023-03-02T05:59:10.272Z,5.07
2023-03-02T06:02:04.330Z,5.45
2023-03-02T06:04:58.203Z,4.78
2023-03-02T06:07:51.423Z,4.65
2023-03-02T06:10:45.164Z,4.82
2023-03-02T06:13:40.544Z,4.03
2023-03-02T06:16:34.528Z,4.50
2023-03-02T06:19:28.069Z,3.97
2023-03-02T06:22:21.239Z,4.25
2023-03-02T06:25:17.119Z,5.82
2023-03-02T06:28:10.095Z,12.70
2023-03-02T06:31:04.789Z,6.43
2023-03-02T06:33:57.867Z,8.50
2023-03-02T06:36:51.028Z,7.93
2023-03-02T06:39:43.732Z,5.88
2023-03-02T06:42:37.670Z,4.43
2023-03-02T06:45:33.767Z,7.90
2023-03-02T06:48:28.278Z,4.45
2023-03-02T06:51:21.820Z,6.80
2023-03-02T06:54:15.224Z,6.60
2023-03-02T06:57:08.057Z,6.13
2023-03-02T07:00:02.611Z,4.60
2023-03-02T07:02:57.571Z,5.13
2023-03-02T07:05:52.248Z,5.32
2023-03-02T07:08:45.076Z,5.50
2023-03-02T07:11:38.020Z,4.63
2023-03-02T07:14:30.992Z,4.63
2023-03-02T07:17:24.038Z,3.53
2023-03-02T07:20:19.328Z,5.13
2023-03-02T07:23:14.171Z,6.90
2023-03-02T07:26:08.865Z,5.43
2023-03-02T07:29:01.820Z,4.03
2023-03-02T07:31:57.385Z,4.65
2023-03-02T07:34:50.936Z,5.00
2023-03-02T07:37:44.596Z,5.00
2023-03-02T07:40:41.603Z,4.30
2023-03-02T07:43:36.572Z,4.45
2023-03-02T07:46:30.469Z,5.60
2023-03-02T07:49:24.516Z,4.30
2023-03-02T07:52:18.284Z,6.85
2023-03-02T07:55:11.725Z,5.07
2023-03-02T07:58:06.177Z,5.28
2023-03-02T08:00:59.261Z,4.25
2023-03-02T08:03:51.988Z,5.15
2023-03-02T08:06:45.049Z,3.83
2023-03-02T08:09:39.147Z,5.32
2023-03-02T08:12:32.296Z,5.57
2023-03-02T08:15:26.575Z,5.68
2023-03-02T08:18:20.226Z,7.25
2023-03-02T08:21:15.032Z,4.93
2023-03-02T08:24:08.528Z,4.45
2023-03-02T08:27:02.836Z,4.18
2023-03-02T08:29:56.758Z,4.55
2023-03-02T08:32:51.466Z,5.97
2023-03-02T08:35:45.368Z,4.35
2023-03-02T08:38:39.372Z,6.15
2023-03-02T08:41:34.644Z,5.55
2023-03-02T08:44:28.222Z,7.70
2023-03-02T08:47:21.650Z,4.78
2023-03-02T08:50:16.473Z,5.30
2023-03-02T08:53:10.015Z,5.47
2023-03-02T08:56:03.454Z,5.70
2023-03-02T08:59:00.157Z,6.00
2023-03-02T09:01:52.941Z,5.25
2023-03-02T09:04:46.367Z,5.88
2023-03-02T09:07:41.222Z,4.35
2023-03-02T09:10:34.454Z,3.70
2023-03-02T09:13:28.171Z,5.72
2023-03-02T09:16:21.242Z,5.60
2023-03-02T09:19:14.772Z,5.50
2023-03-02T09:22:08.375Z,4.45
2023-03-02T09:25:03.857Z,4.75
2023-03-02T09:27:57.031Z,4.72
2023-03-02T09:30:51.054Z,4.47
2023-03-02T09:33:43.963Z,6.10
2023-03-02T09:36:53.010Z,3.88
2023-03-02T09:39:46.614Z,5.07
2023-03-02T09:43:04.642Z,7.90
2023-03-02T09:46:13.264Z,5.72
2023-03-02T09:49:19.561Z,4.20
2023-03-02T09:52:23.312Z,5.22
2023-03-02T09:55:19.444Z,6.65
2023-03-02T09:58:21.887Z,5.38
2023-03-02T10:01:23.013Z,5.35
2023-03-02T10:04:24.770Z,6.10
2023-03-02T10:07:23.644Z,4.43
2023-03-02T10:10:27.522Z,5.57
2023-03-02T10:13:27.454Z,4.95
2023-03-02T10:16:32.468Z,6.78
2023-03-02T10:19:32.296Z,4.38
2023-03-02T10:22:30.898Z,5.95
2023-03-02T10:25:32.216Z,4.35
2023-03-02T10:28:33.666Z,6.22
2023-03-02T10:31:29.550Z,4.95
2023-03-02T10:34:27.700Z,4.45
2023-03-02T10:37:24.932Z,4.72
2023-03-02T10:40:30.740Z,4.05
2023-03-02T10:43:31.506Z,4.13
2023-03-02T10:46:26.154Z,4.28
2023-03-02T10:49:26.298Z,3.58
2023-03-02T10:52:21.745Z,6.65
2023-03-02T10:55:16.698Z,7.13
2023-03-02T10:58:26.910Z,4.78
2023-03-02T11:01:21.394Z,5.40
2023-03-02T11:04:16.433Z,4.75
2023-03-02T11:07:13.142Z,6.10
2023-03-02T11:10:21.166Z,5.47
2023-03-02T11:13:20.454Z,5.82
2023-03-02T11:16:28.358Z,3.92
2023-03-02T11:19:30.862Z,5.32
2023-03-02T11:22:33.055Z,3.88
2023-03-02T11:25:30.567Z,5.15
2023-03-02T11:28:38.127Z,5.53
2023-03-02T11:31:42.449Z,5.80
2023-03-02T11:34:42.008Z,4.28
2023-03-02T11:37:40.789Z,3.95
2023-03-02T11:40:42.449Z,5.13
2023-03-02T11:43:36.428Z,4.00
2023-03-02T11:46:34.085Z,5.20
2023-03-02T11:49:37.961Z,5.28
2023-03-02T11:52:35.367Z,4.82
2023-03-02T11:55:31.052Z,4.05
2023-03-02T11:58:27.006Z,3.78
2023-03-02T12:01:23.814Z,5.57
2023-03-02T12:04:30.354Z,3.88
2023-03-02T12:07:25.491Z,4.63
2023-03-02T12:10:28.547Z,2.97
2023-03-02T12:13:26.640Z,4.05
2023-03-02T12:16:21.538Z,4.43
2023-03-02T12:19:28.193Z,4.65
2023-03-02T12:22:29.494Z,4.88
2023-03-02T12:25:38.936Z,5.43
2023-03-02T12:28:34.730Z,3.53
2023-03-02T12:31:28.963Z,4.75
2023-03-02T12:34:39.643Z,4.97
2023-03-02T12:37:41.411Z,4.43
2023-03-02T12:40:59.211Z,5.28
2023-03-02T12:44:12.656Z,5.75
2023-03-02T12:47:15.837Z,4.18
2023-03-02T12:50:20.915Z,4.47
2023-03-02T12:53:19.605Z,5.75
2023-03-02T12:56:23.184Z,5.43
2023-03-02T12:59:24.893Z,4.90
2023-03-02T13:02:21.473Z,4.93
2023-03-02T13:05:20.433Z,6.97
2023-03-02T13:08:19.419Z,4.47
2023-03-02T13:11:12.797Z,4.68
2023-03-02T13:14:20.340Z,6.05
2023-03-02T13:17:23.488Z,3.38
2023-03-02T13:20:27.489Z,7.13
2023-03-02T13:23:20.969Z,11.85
2023-03-02T13:26:26.332Z,7.75
2023-03-02T13:29:20.743Z,9.75
2023-03-02T13:32:19.768Z,9.32
2023-03-02T13:35:33.986Z,7.60
2023-03-02T13:38:31.349Z,7.93
2023-03-02T13:41:28.798Z,6.95
2023-03-02T13:44:28.496Z,8.13
2023-03-02T13:47:24.533Z,5.78
2023-03-02T13:50:23.346Z,7.00
2023-03-02T13:53:16.304Z,7.53
2023-03-02T13:56:14.381Z,8.55
2023-03-02T13:59:13.684Z,9.30
2023-03-02T14:02:25.320Z,12.30
2023-03-02T14:05:22.788Z,10.73
2023-03-02T14:08:16.557Z,8.40
2023-03-02T14:11:12.609Z,7.90
2023-03-02T14:14:08.542Z,9.02
2023-03-02T14:17:01.299Z,8.32
2023-03-02T14:19:55.263Z,6.43
2023-03-02T14:22:50.588Z,6.72
2023-03-02T14:25:44.669Z,9.95
2023-03-02T14:28:38.465Z,6.28
2023-03-02T14:31:31.526Z,6.72
2023-03-02T14:34:25.283Z,5.70
2023-03-02T14:37:22.821Z,7.35
2023-03-02T14:40:24.143Z,7.05
2023-03-02T14:43:18.639Z,4.68
2023-03-02T14:46:12.831Z,6.57
2023-03-02T14:49:06.575Z,7.07
2023-03-02T14:52:03.804Z,5.55
2023-03-02T14:55:00.131Z,5.45
2023-03-02T14:57:58.246Z,6.03
2023-03-02T15:00:51.395Z,5.90
2023-03-02T15:03:44.484Z,4.55
2023-03-02T15:06:40.280Z,6.75
2023-03-02T15:09:33.680Z,4.43
2023-03-02T15:12:27.590Z,4.97
2023-03-02T15:15:22.295Z,5.15
2023-03-02T15:18:19.515Z,5.97
2023-03-02T15:21:17.978Z,6.20
2023-03-02T15:24:11.767Z,4.35
2023-03-02T15:27:05.151Z,5.22
2023-03-02T15:29:57.945Z,7.80
2023-03-02T15:32:54.730Z,5.28
2023-03-02T15:35:55.275Z,5.47
2023-03-02T15:38:50.605Z,4.65
2023-03-02T15:41:43.365Z,5.93
2023-03-02T15:44:36.254Z,4.22
2023-03-02T15:47:29.632Z,4.78
2023-03-02T15:50:24.239Z,4.28
2023-03-02T15:53:17.511Z,5.50
2023-03-02T15:56:13.844Z,5.07
2023-03-02T15:59:07.066Z,4.72
2023-03-02T16:02:02.400Z,6.93
2023-03-02T16:04:55.759Z,4.30
2023-03-02T16:07:50.827Z,4.78
2023-03-02T16:10:44.707Z,4.93
2023-03-02T16:13:39.331Z,4.55
2023-03-02T16:16:32.278Z,4.38
2023-03-02T16:19:25.468Z,3.95
2023-03-02T16:22:18.004Z,5.47
2023-03-02T16:25:13.008Z,5.60
2023-03-02T16:28:06.684Z,5.00
2023-03-02T16:31:04.421Z,4.00
2023-03-02T16:33:58.918Z,4.22
2023-03-02T16:36:52.555Z,4.05
2023-03-02T16:39:45.633Z,7.88
2023-03-02T16:42:41.671Z,4.63
2023-03-02T16:45:34.566Z,4.10
2023-03-02T16:48:29.703Z,4.97
2023-03-02T16:51:23.473Z,5.13
2023-03-02T16:54:18.405Z,4.78
2023-03-02T16:57:11.321Z,4.70
2023-03-02T17:00:08.516Z,3.47
2023-03-02T17:03:02.241Z,3.92
2023-03-02T17:05:55.378Z,5.72
2023-03-02T17:08:48.767Z,3.60
2023-03-02T17:11:42.860Z,4.15
2023-03-02T17:14:36.378Z,3.38
2023-03-02T17:17:30.918Z,4.63
2023-03-02T17:20:24.840Z,3.88
2023-03-02T17:23:18.683Z,4.15
2023-03-02T17:26:11.524Z,3.67
2023-03-02T17:29:05.020Z,4.47
2023-03-02T17:31:58.452Z,4.60
2023-03-02T17:34:53.528Z,3.38
2023-03-02T17:37:46.613Z,3.78
2023-03-02T17:40:45.551Z,5.00
2023-03-02T17:43:40.816Z,3.75
2023-03-02T17:46:34.582Z,4.18
2023-03-02T17:49:27.295Z,3.45
2023-03-02T17:52:22.257Z,3.50
2023-03-02T17:55:15.639Z,3.83
2023-03-02T17:58:08.889Z,3.42
2023-03-02T18:01:02.867Z,3.90
2023-03-02T18:03:56.960Z,3.60
2023-03-02T18:06:53.033Z,2.53
2023-03-02T18:09:48.737Z,4.65
2023-03-02T18:12:41.607Z,2.75
2023-03-02T18:15:34.756Z,3.50
2023-03-02T18:18:27.538Z,3.92
2023-03-02T18:21:20.993Z,3.30
2023-03-02T18:24:14.920Z,4.03
2023-03-02T18:27:09.791Z,4.90
2023-03-02T18:30:09.952Z,2.85
2023-03-02T18:33:03.314Z,3.33
2023-03-02T18:35:57.361Z,3.97
2023-03-02T18:38:53.327Z,2.90
2023-03-02T18:41:52.956Z,3.53
2023-03-02T18:44:47.981Z,3.40
2023-03-02T18:47:41.433Z,2.90
2023-03-02T18:50:34.986Z,3.60
2023-03-02T18:53:28.820Z,3.83
2023-03-02T18:56:23.526Z,2.90
2023-03-02T18:59:17.990Z,3.83
2023-03-02T19:02:18.995Z,2.88
2023-03-02T19:05:31.670Z,3.63
2023-03-02T19:08:25.101Z,3.78
2023-03-02T19:11:59.154Z,3.65
2023-03-02T19:15:20.975Z,4.43
2023-03-02T19:22:51.601Z,4.75
2023-03-02T19:25:45.818Z,3.53
2023-03-02T19:28:39.987Z,2.35
2023-03-02T19:31:33.924Z,5.25
2023-03-02T19:34:29.374Z,7.60
2023-03-02T19:37:24.310Z,9.25
2023-03-02T19:40:19.210Z,8.77
2023-03-02T19:43:12.753Z,7.30
2023-03-02T19:46:06.098Z,7.90
2023-03-02T19:48:59.351Z,11.57
2023-03-02T19:51:54.047Z,7.38
2023-03-02T19:54:47.606Z,6.57
2023-03-02T19:57:41.527Z,7.15
2023-03-02T20:00:36.457Z,17.13
2023-03-02T20:03:33.756Z,18.27
2023-03-02T20:06:30.385Z,10.18
2023-03-02T20:09:25.062Z,10.38
2023-03-02T20:12:19.801Z,9.88
2023-03-02T20:15:13.021Z,6.85
2023-03-02T20:18:07.859Z,8.63
2023-03-02T20:21:01.288Z,5.28
2023-03-02T20:23:54.790Z,8.80
2023-03-02T20:26:49.100Z,6.97
2023-03-02T20:29:44.262Z,6.60
2023-03-02T20:32:37.908Z,6.63
2023-03-02T20:35:36.248Z,7.65
2023-03-02T20:38:32.800Z,10.57
2023-03-02T20:41:25.473Z,7.75
2023-03-02T20:44:21.272Z,8.40
2023-03-02T20:47:16.898Z,9.85
2023-03-02T20:50:14.994Z,8.32
2023-03-02T20:53:09.388Z,8.15
2023-03-02T20:56:02.952Z,6.80
2023-03-02T20:58:56.836Z,7.00
2023-03-02T21:01:51.615Z,8.20
2023-03-02T21:04:44.920Z,5.75
2023-03-02T21:07:38.981Z,5.45
2023-03-02T21:10:35.291Z,7.03
2023-03-02T21:13:28.737Z,6.85
2023-03-02T21:16:23.895Z,6.75
2023-03-02T21:19:19.025Z,7.32
2023-03-02T21:22:12.833Z,5.63
2023-03-02T21:25:08.449Z,5.20
2023-03-02T21:28:01.829Z,6.07
2023-03-02T21:30:54.774Z,5.00
2023-03-02T21:33:49.610Z,7.55
2023-03-02T21:36:44.298Z,6.53
2023-03-02T21:39:37.852Z,7.20
2023-03-02T21:42:31.035Z,8.10
2023-03-02T21:45:24.798Z,5.80
2023-03-02T21:48:18.609Z,7.10
2023-03-02T21:51:12.924Z,6.05
2023-03-02T21:54:07.437Z,5.68
2023-03-02T21:57:00.757Z,6.55
2023-03-02T21:59:54.689Z,6.50
2023-03-02T22:02:47.806Z,8.43
2023-03-02T22:05:41.742Z,5.65
2023-03-02T22:08:35.348Z,6.22
2023-03-02T22:11:31.981Z,5.47
2023-03-02T22:14:26.804Z,6.35
2023-03-02T22:17:22.402Z,6.07
2023-03-02T22:20:19.367Z,5.85
2023-03-02T22:23:15.333Z,12.32
2023-03-02T22:26:16.430Z,10.57
2023-03-02T22:29:16.082Z,11.85
2023-03-02T22:32:17.210Z,9.40
2023-03-02T22:35:22.012Z,8.05
2023-03-02T22:38:23.103Z,9.35
2023-03-02T22:41:19.486Z,10.65
2023-03-02T22:44:15.107Z,11.05
2023-03-02T22:47:16.044Z,8.90
2023-03-02T22:50:21.640Z,8.93
2023-03-02T22:53:24.536Z,10.73
2023-03-02T22:56:30.022Z,8.57
2023-03-02T22:59:26.773Z,10.35
2023-03-02T23:02:22.249Z,9.40
2023-03-02T23:05:27.010Z,10.88
2023-03-02T23:08:24.035Z,11.60
2023-03-02T23:11:19.739Z,10.30
2023-03-02T23:14:21.134Z,10.82
2023-03-02T23:17:20.961Z,9.45
2023-03-02T23:20:16.005Z,9.57
2023-03-02T23:23:09.180Z,9.73
2023-03-02T23:26:02.826Z,11.13
2023-03-02T23:28:55.661Z,9.25
2023-03-02T23:31:49.369Z,10.02
2023-03-02T23:34:43.938Z,10.82
2023-03-02T23:37:36.814Z,12.45
2023-03-02T23:40:30.071Z,11.32
2023-03-02T23:43:23.931Z,9.30
2023-03-02T23:46:18.859Z,12.27
2023-03-02T23:49:12.079Z,9.75
2023-03-02T23:52:07.070Z,13.27
2023-03-02T23:55:00.928Z,11.10
2023-03-02T23:57:53.868Z,12.20
